sensor_id;sensor_type;location;lat;lon;timestamp;pressure;altitude;pressure_sealevel;temperature;humidity
48390;BME280;34643;47.964;7.982;2023-02-23T00:00:01;96394.28;;;15.91;60.77
48390;BME280;34643;47.964;7.982;2023-02-23T00:05:11;96393.44;;;15.91;60.89
48390;BME280;34643;47.964;7.982;2023-02-23T00:10:12;96385.75;;;15.89;60.83
48390;BME280;34643;47.964;7.982;2023-02-23T00:15:12;96389.19;;;15.90;60.96
48390;BME280;34643;47.964;7.982;2023-02-23T00:20:14;96391.66;;;15.91;60.83
48390;BME280;34643;47.964;7.982;2023-02-23T00:25:15;96383.97;;;15.90;60.87
48390;BME280;34643;47.964;7.982;2023-02-23T00:30:18;96381.38;;;15.90;60.87
48390;BME280;34643;47.964;7.982;2023-02-23T00:35:21;96383.16;;;15.89;60.87
48390;BME280;34643;47.964;7.982;2023-02-23T00:40:23;96378.91;;;15.88;60.89
48390;BME280;34643;47.964;7.982;2023-02-23T00:45:24;96383.97;;;15.90;60.94
48390;BME280;34643;47.964;7.982;2023-02-23T00:50:26;96389.19;;;15.90;61.00
48390;BME280;34643;47.964;7.982;2023-02-23T00:55:26;96384.81;;;15.90;61.01
48390;BME280;34643;47.964;7.982;2023-02-23T01:00:26;96380.53;;;15.89;60.93
48390;BME280;34643;47.964;7.982;2023-02-23T01:05:28;96371.91;;;15.89;61.04
48390;BME280;34643;47.964;7.982;2023-02-23T01:10:28;96385.88;;;15.88;60.84
48390;BME280;34643;47.964;7.982;2023-02-23T01:15:28;96371.09;;;15.88;60.98
48390;BME280;34643;47.964;7.982;2023-02-23T01:20:29;96368.59;;;15.87;60.91
48390;BME280;34643;47.964;7.982;2023-02-23T01:25:29;96372.13;;;15.86;60.89
48390;BME280;34643;47.964;7.982;2023-02-23T01:30:30;96362.56;;;15.86;60.85
48390;BME280;34643;47.964;7.982;2023-02-23T01:35:30;96366.00;;;15.87;60.77
48390;BME280;34643;47.964;7.982;2023-02-23T01:40:32;96361.72;;;15.86;60.77
48390;BME280;34643;47.964;7.982;2023-02-23T01:45:36;96369.53;;;15.86;60.83
48390;BME280;34643;47.964;7.982;2023-02-23T01:50:42;96367.75;;;15.86;60.80
48390;BME280;34643;47.964;7.982;2023-02-23T01:55:49;96365.16;;;15.86;60.87
48390;BME280;34643;47.964;7.982;2023-02-23T02:00:56;96359.94;;;15.86;60.76
48390;BME280;34643;47.964;7.982;2023-02-23T02:05:57;96361.63;;;15.87;60.88
48390;BME280;34643;47.964;7.982;2023-02-23T02:11:00;96358.19;;;15.87;60.88
48390;BME280;34643;47.964;7.982;2023-02-23T02:16:14;96347.91;;;15.85;60.99
48390;BME280;34643;47.964;7.982;2023-02-23T02:21:24;96350.38;;;15.87;61.00
48390;BME280;34643;47.964;7.982;2023-02-23T02:31:49;96344.47;;;15.85;61.10
48390;BME280;34643;47.964;7.982;2023-02-23T02:47:19;96325.41;;;15.84;60.91
48390;BME280;34643;47.964;7.982;2023-02-23T02:52:23;96335.81;;;15.84;61.07
48390;BME280;34643;47.964;7.982;2023-02-23T02:57:25;96322.81;;;15.84;60.92
48390;BME280;34643;47.964;7.982;2023-02-23T03:02:26;96323.66;;;15.85;61.05
48390;BME280;34643;47.964;7.982;2023-02-23T03:07:50;96321.06;;;15.85;60.91
48390;BME280;34643;47.964;7.982;2023-02-23T03:13:17;96317.59;;;15.84;61.07
48390;BME280;34643;47.964;7.982;2023-02-23T03:24:04;96320.09;;;15.86;61.07
48390;BME280;34643;47.964;7.982;2023-02-23T03:29:37;96327.09;;;15.85;61.08
48390;BME280;34643;47.964;7.982;2023-02-23T03:35:04;96330.50;;;15.86;61.07
48390;BME280;34643;47.964;7.982;2023-02-23T03:40:31;96328.00;;;15.84;61.17
48390;BME280;34643;47.964;7.982;2023-02-23T03:45:52;96321.97;;;15.84;60.98
48390;BME280;34643;47.964;7.982;2023-02-23T03:51:13;96323.66;;;15.85;61.06
48390;BME280;34643;47.964;7.982;2023-02-23T03:56:32;96321.06;;;15.85;61.01
48390;BME280;34643;47.964;7.982;2023-02-23T04:01:53;96316.78;;;15.84;61.00
48390;BME280;34643;47.964;7.982;2023-02-23T04:07:14;96312.41;;;15.84;61.06
48390;BME280;34643;47.964;7.982;2023-02-23T04:18:17;96315.97;;;15.83;60.94
48390;BME280;34643;47.964;7.982;2023-02-23T04:23:20;96315.09;;;15.83;61.11
48390;BME280;34643;47.964;7.982;2023-02-23T04:28:22;96318.56;;;15.83;61.08
48390;BME280;34643;47.964;7.982;2023-02-23T04:33:23;96316.78;;;15.84;60.99
48390;BME280;34643;47.964;7.982;2023-02-23T04:38:26;96317.59;;;15.84;61.00
48390;BME280;34643;47.964;7.982;2023-02-23T04:43:26;96317.38;;;15.87;60.69
48390;BME280;34643;47.964;7.982;2023-02-23T04:48:27;96308.50;;;15.90;60.86
48390;BME280;34643;47.964;7.982;2023-02-23T04:53:27;96317.75;;;15.94;60.93
48390;BME280;34643;47.964;7.982;2023-02-23T04:58:27;96321.06;;;15.96;60.99
48390;BME280;34643;47.964;7.982;2023-02-23T05:03:27;96320.84;;;15.99;60.88
48390;BME280;34643;47.964;7.982;2023-02-23T05:08:28;96312.06;;;16.00;61.02
48390;BME280;34643;47.964;7.982;2023-02-23T05:13:28;96312.66;;;16.04;61.07
48390;BME280;34643;47.964;7.982;2023-02-23T05:18:28;96318.72;;;16.04;60.91
48390;BME280;34643;47.964;7.982;2023-02-23T05:23:28;96311.63;;;16.06;61.01
48390;BME280;34643;47.964;7.982;2023-02-23T05:28:29;96312.53;;;16.05;61.49
48390;BME280;34643;47.964;7.982;2023-02-23T05:33:30;96311.50;;;16.08;61.10
48390;BME280;34643;47.964;7.982;2023-02-23T05:38:30;96312.44;;;16.07;61.21
48390;BME280;34643;47.964;7.982;2023-02-23T05:43:30;96312.44;;;16.07;61.17
48390;BME280;34643;47.964;7.982;2023-02-23T05:48:30;96313.25;;;16.07;61.13
48390;BME280;34643;47.964;7.982;2023-02-23T05:53:31;96315.03;;;16.07;61.08
48390;BME280;34643;47.964;7.982;2023-02-23T05:58:32;96310.66;;;16.07;61.17
48390;BME280;34643;47.964;7.982;2023-02-23T06:03:32;96312.44;;;16.07;61.24
48390;BME280;34643;47.964;7.982;2023-02-23T06:08:33;96314.22;;;16.06;61.28
48390;BME280;34643;47.964;7.982;2023-02-23T06:13:33;96322.13;;;16.05;61.19
48390;BME280;34643;47.964;7.982;2023-02-23T06:18:33;96327.22;;;16.06;61.10
48390;BME280;34643;47.964;7.982;2023-02-23T06:23:34;96328.28;;;16.04;61.21
48390;BME280;34643;47.964;7.982;2023-02-23T06:28:34;96329.25;;;16.03;60.99
48390;BME280;34643;47.964;7.982;2023-02-23T06:33:35;96330.16;;;16.02;61.43
48390;BME280;34643;47.964;7.982;2023-02-23T06:38:35;96337.97;;;16.02;61.30
48390;BME280;34643;47.964;7.982;2023-02-23T06:43:37;96334.34;;;16.04;61.22
48390;BME280;34643;47.964;7.982;2023-02-23T06:48:37;96339.66;;;16.14;61.41
48390;BME280;34643;47.964;7.982;2023-02-23T06:53:37;96341.91;;;16.19;61.68
48390;BME280;34643;47.964;7.982;2023-02-23T06:58:37;96346.97;;;16.09;61.64
48390;BME280;34643;47.964;7.982;2023-02-23T07:03:38;96354.31;;;16.04;61.76
48390;BME280;34643;47.964;7.982;2023-02-23T07:08:38;96360.59;;;16.01;61.51
48390;BME280;34643;47.964;7.982;2023-02-23T07:13:38;96364.22;;;15.99;61.34
48390;BME280;34643;47.964;7.982;2023-02-23T07:18:39;96370.41;;;15.98;61.21
48390;BME280;34643;47.964;7.982;2023-02-23T07:23:39;96375.72;;;15.96;61.20
48390;BME280;34643;47.964;7.982;2023-02-23T07:28:39;96377.63;;;15.94;61.07
48390;BME280;34643;47.964;7.982;2023-02-23T07:33:39;96376.06;;;15.91;61.03
48390;BME280;34643;47.964;7.982;2023-02-23T07:38:40;96379.63;;;15.90;60.96
48390;BME280;34643;47.964;7.982;2023-02-23T07:43:40;96371.91;;;15.89;60.89
48390;BME280;34643;47.964;7.982;2023-02-23T07:48:41;96367.75;;;15.86;60.81
48390;BME280;34643;47.964;7.982;2023-02-23T07:53:44;96373.94;;;15.85;60.73
48390;BME280;34643;47.964;7.982;2023-02-23T07:58:44;96368.81;;;15.84;60.70
48390;BME280;34643;47.964;7.982;2023-02-23T08:03:45;96369.75;;;15.83;60.69
48390;BME280;34643;47.964;7.982;2023-02-23T08:08:48;96370.72;;;15.82;60.48
48390;BME280;34643;47.964;7.982;2023-02-23T08:13:49;96371.75;;;15.79;60.48
48390;BME280;34643;47.964;7.982;2023-02-23T08:18:49;96374.38;;;15.79;60.43
48390;BME280;34643;47.964;7.982;2023-02-23T08:23:49;96373.22;;;15.83;60.29
48390;BME280;34643;47.964;7.982;2023-02-23T08:28:50;96376.75;;;15.82;60.42
48390;BME280;34643;47.964;7.982;2023-02-23T08:33:51;96382.06;;;15.81;60.48
48390;BME280;34643;47.964;7.982;2023-02-23T08:38:51;96378.75;;;15.78;60.50
48390;BME280;34643;47.964;7.982;2023-02-23T08:43:53;96378.03;;;15.76;60.48
48390;BME280;34643;47.964;7.982;2023-02-23T08:48:54;96386.78;;;15.75;60.27
48390;BME280;34643;47.964;7.982;2023-02-23T08:53:54;96376.59;;;15.72;60.43
48390;BME280;34643;47.964;7.982;2023-02-23T08:58:56;96381.78;;;15.72;60.33
48390;BME280;34643;47.964;7.982;2023-02-23T09:03:56;96376.81;;;15.69;60.37
48390;BME280;34643;47.964;7.982;2023-02-23T09:08:57;96382.81;;;15.70;60.13
48390;BME280;34643;47.964;7.982;2023-02-23T09:13:57;96384.59;;;15.69;60.02
48390;BME280;34643;47.964;7.982;2023-02-23T09:18:57;96384.59;;;15.69;60.07
48390;BME280;34643;47.964;7.982;2023-02-23T09:24:00;96387.22;;;15.69;59.95
48390;BME280;34643;47.964;7.982;2023-02-23T09:29:00;96387.22;;;15.69;60.14
48390;BME280;34643;47.964;7.982;2023-02-23T09:34:01;96387.22;;;15.69;60.05
48390;BME280;34643;47.964;7.982;2023-02-23T09:39:01;96385.44;;;15.70;60.15
48390;BME280;34643;47.964;7.982;2023-02-23T09:44:02;96376.81;;;15.69;59.88
48390;BME280;34643;47.964;7.982;2023-02-23T09:49:15;96382.72;;;15.71;59.79
48390;BME280;34643;47.964;7.982;2023-02-23T09:54:16;96380.13;;;15.71;59.92
48390;BME280;34643;47.964;7.982;2023-02-23T09:59:17;96377.31;;;15.74;59.80
48390;BME280;34643;47.964;7.982;2023-02-23T10:04:38;96379.94;;;15.74;59.84
48390;BME280;34643;47.964;7.982;2023-02-23T10:14:51;96375.44;;;15.76;59.85
48390;BME280;34643;47.964;7.982;2023-02-23T10:20:04;96367.63;;;15.76;59.76
48390;BME280;34643;47.964;7.982;2023-02-23T10:25:08;96371.06;;;15.77;59.84
48390;BME280;34643;47.964;7.982;2023-02-23T10:30:13;96370.22;;;15.76;60.07
48390;BME280;34643;47.964;7.982;2023-02-23T10:35:16;96363.25;;;15.77;59.89
48390;BME280;34643;47.964;7.982;2023-02-23T10:40:22;96361.72;;;15.74;60.01
48390;BME280;34643;47.964;7.982;2023-02-23T10:45:24;96360.00;;;15.73;59.84
48390;BME280;34643;47.964;7.982;2023-02-23T10:50:25;96359.13;;;15.74;59.90
48390;BME280;34643;47.964;7.982;2023-02-23T10:55:27;96361.72;;;15.74;59.86
48390;BME280;34643;47.964;7.982;2023-02-23T11:00:28;96365.13;;;15.75;59.90
48390;BME280;34643;47.964;7.982;2023-02-23T11:05:48;96353.91;;;15.74;59.83
48390;BME280;34643;47.964;7.982;2023-02-23T11:16:12;96345.13;;;15.75;59.81
48390;BME280;34643;47.964;7.982;2023-02-23T11:21:17;96352.94;;;15.75;59.82
48390;BME280;34643;47.964;7.982;2023-02-23T11:31:28;96348.47;;;15.77;59.90
48390;BME280;34643;47.964;7.982;2023-02-23T11:36:30;96337.34;;;15.75;59.93
48390;BME280;34643;47.964;7.982;2023-02-23T11:41:31;96340.78;;;15.76;59.84
48390;BME280;34643;47.964;7.982;2023-02-23T11:46:35;96335.69;;;15.74;59.85
48390;BME280;34643;47.964;7.982;2023-02-23T11:51:36;96333.91;;;15.75;59.76
48390;BME280;34643;47.964;7.982;2023-02-23T11:56:37;96329.53;;;15.75;59.89
48390;BME280;34643;47.964;7.982;2023-02-23T12:06:43;96333.94;;;15.86;59.68
48390;BME280;34643;47.964;7.982;2023-02-23T12:11:45;96330.88;;;15.92;59.57
48390;BME280;34643;47.964;7.982;2023-02-23T12:16:49;96331.25;;;15.99;59.68
48390;BME280;34643;47.964;7.982;2023-02-23T12:21:57;96329.34;;;16.01;59.63
48390;BME280;34643;47.964;7.982;2023-02-23T12:32:13;96317.03;;;16.03;59.90
48390;BME280;34643;47.964;7.982;2023-02-23T12:42:22;96315.03;;;16.07;59.99
48390;BME280;34643;47.964;7.982;2023-02-23T12:52:34;96306.88;;;16.11;60.03
48390;BME280;34643;47.964;7.982;2023-02-23T13:02:39;96312.53;;;16.16;60.13
48390;BME280;34643;47.964;7.982;2023-02-23T13:18:27;96308.06;;;16.19;60.09
48390;BME280;34643;47.964;7.982;2023-02-23T13:23:42;96297.66;;;16.19;60.14
48390;BME280;34643;47.964;7.982;2023-02-23T13:28:49;96307.94;;;16.20;59.89
48390;BME280;34643;47.964;7.982;2023-02-23T13:33:52;96297.66;;;16.19;59.91
48390;BME280;34643;47.964;7.982;2023-02-23T13:44:20;96298.38;;;16.21;59.88
48390;BME280;34643;47.964;7.982;2023-02-23T13:54:33;96295.06;;;16.19;60.03
48390;BME280;34643;47.964;7.982;2023-02-23T13:59:37;96295.06;;;16.19;59.89
48390;BME280;34643;47.964;7.982;2023-02-23T14:04:40;96294.09;;;16.20;59.95
48390;BME280;34643;47.964;7.982;2023-02-23T14:09:46;96293.25;;;16.19;59.88
48390;BME280;34643;47.964;7.982;2023-02-23T14:14:49;96282.97;;;16.18;59.90
48390;BME280;34643;47.964;7.982;2023-02-23T14:20:04;96284.75;;;16.17;59.77
48390;BME280;34643;47.964;7.982;2023-02-23T14:30:25;96292.69;;;16.15;59.70
48390;BME280;34643;47.964;7.982;2023-02-23T14:40:31;96280.59;;;16.14;59.68
48390;BME280;34643;47.964;7.982;2023-02-23T14:45:32;96278.94;;;16.13;59.78
48390;BME280;34643;47.964;7.982;2023-02-23T14:50:36;96273.75;;;16.13;59.72
48390;BME280;34643;47.964;7.982;2023-02-23T14:55:39;96277.16;;;16.14;59.74
48390;BME280;34643;47.964;7.982;2023-02-23T15:00:42;96278.00;;;16.14;59.51
48390;BME280;34643;47.964;7.982;2023-02-23T15:05:43;96282.50;;;16.12;59.66
48390;BME280;34643;47.964;7.982;2023-02-23T15:10:46;96284.28;;;16.12;59.44
48390;BME280;34643;47.964;7.982;2023-02-23T15:15:47;96286.88;;;16.12;59.55
48390;BME280;34643;47.964;7.982;2023-02-23T15:20:48;96293.88;;;16.11;59.52
48390;BME280;34643;47.964;7.982;2023-02-23T15:25:49;96284.28;;;16.12;59.36
48390;BME280;34643;47.964;7.982;2023-02-23T15:30:52;96271.38;;;16.10;59.28
48390;BME280;34643;47.964;7.982;2023-02-23T15:36:08;96279.28;;;16.09;59.35
48390;BME280;34643;47.964;7.982;2023-02-23T15:41:14;96275.88;;;16.08;59.25
48390;BME280;34643;47.964;7.982;2023-02-23T15:46:25;96276.81;;;16.07;59.38
48390;BME280;34643;47.964;7.982;2023-02-23T15:51:30;96267.25;;;16.08;59.36
48390;BME280;34643;47.964;7.982;2023-02-23T15:56:33;96272.56;;;16.06;59.29
48390;BME280;34643;47.964;7.982;2023-02-23T16:01:38;96267.47;;;16.05;59.28
48390;BME280;34643;47.964;7.982;2023-02-23T16:06:52;96261.56;;;16.03;59.28
48390;BME280;34643;47.964;7.982;2023-02-23T16:11:54;96269.38;;;16.03;59.12
48390;BME280;34643;47.964;7.982;2023-02-23T16:16:55;96260.72;;;16.02;59.28
48390;BME280;34643;47.964;7.982;2023-02-23T16:21:56;96254.69;;;16.02;59.09
48390;BME280;34643;47.964;7.982;2023-02-23T16:26:57;96269.47;;;16.01;59.19
48390;BME280;34643;47.964;7.982;2023-02-23T16:32:00;96264.28;;;16.01;59.16
48390;BME280;34643;47.964;7.982;2023-02-23T16:37:02;96266.88;;;16.01;59.22
48390;BME280;34643;47.964;7.982;2023-02-23T16:42:03;96269.59;;;16.00;59.01
48390;BME280;34643;47.964;7.982;2023-02-23T16:52:11;96273.97;;;15.99;58.91
48390;BME280;34643;47.964;7.982;2023-02-23T16:57:19;96281.06;;;15.97;59.12
48390;BME280;34643;47.964;7.982;2023-02-23T17:02:21;96275.84;;;15.97;58.97
48390;BME280;34643;47.964;7.982;2023-02-23T17:07:22;96289.00;;;15.95;59.13
48390;BME280;34643;47.964;7.982;2023-02-23T17:12:22;96298.56;;;15.95;58.97
48390;BME280;34643;47.964;7.982;2023-02-23T17:17:22;96294.44;;;15.92;58.83
48390;BME280;34643;47.964;7.982;2023-02-23T17:22:22;96302.25;;;15.92;58.93
48390;BME280;34643;47.964;7.982;2023-02-23T17:27:23;96308.38;;;15.91;58.89
48390;BME280;34643;47.964;7.982;2023-02-23T17:32:23;96312.78;;;15.91;58.95
48390;BME280;34643;47.964;7.982;2023-02-23T17:37:24;96306.75;;;15.90;58.78
48390;BME280;34643;47.964;7.982;2023-02-23T17:42:27;96308.50;;;15.90;58.88
48390;BME280;34643;47.964;7.982;2023-02-23T17:47:33;96311.25;;;15.88;58.71
48390;BME280;34643;47.964;7.982;2023-02-23T17:52:34;96319.88;;;15.89;59.08
48390;BME280;34643;47.964;7.982;2023-02-23T17:57:34;96325.91;;;15.89;58.75
48390;BME280;34643;47.964;7.982;2023-02-23T18:02:35;96336.19;;;15.91;58.62
48390;BME280;34643;47.964;7.982;2023-02-23T18:07:35;96336.69;;;15.96;58.82
48390;BME280;34643;47.964;7.982;2023-02-23T18:12:35;96345.91;;;16.00;58.51
48390;BME280;34643;47.964;7.982;2023-02-23T18:17:35;96351.81;;;16.02;58.67
48390;BME280;34643;47.964;7.982;2023-02-23T18:22:36;96357.75;;;16.04;58.73
48390;BME280;34643;47.964;7.982;2023-02-23T18:27:36;96358.47;;;16.06;58.86
48390;BME280;34643;47.964;7.982;2023-02-23T18:32:37;96360.00;;;16.09;58.71
48390;BME280;34643;47.964;7.982;2023-02-23T18:37:37;96369.47;;;16.10;58.77
48390;BME280;34643;47.964;7.982;2023-02-23T18:42:37;96368.41;;;16.12;58.88
48390;BME280;34643;47.964;7.982;2023-02-23T18:47:37;96360.50;;;16.14;58.97
48390;BME280;34643;47.964;7.982;2023-02-23T18:52:38;96360.38;;;16.15;59.27
48390;BME280;34643;47.964;7.982;2023-02-23T18:57:39;96358.13;;;16.22;59.48
48390;BME280;34643;47.964;7.982;2023-02-23T19:02:40;96355.19;;;16.38;59.65
48390;BME280;34643;47.964;7.982;2023-02-23T19:07:40;96348.06;;;16.29;60.14
48390;BME280;34643;47.964;7.982;2023-02-23T19:12:41;96348.31;;;16.48;60.70
48390;BME280;34643;47.964;7.982;2023-02-23T19:17:41;96350.44;;;16.54;60.86
48390;BME280;34643;47.964;7.982;2023-02-23T19:22:41;96351.75;;;16.60;61.07
48390;BME280;34643;47.964;7.982;2023-02-23T19:27:42;96346.38;;;16.73;61.80
48390;BME280;34643;47.964;7.982;2023-02-23T19:32:42;96349.69;;;16.75;61.49
48390;BME280;34643;47.964;7.982;2023-02-23T19:37:50;96344.38;;;16.77;61.74
48390;BME280;34643;47.964;7.982;2023-02-23T19:42:50;96346.97;;;16.77;61.86
48390;BME280;34643;47.964;7.982;2023-02-23T19:47:52;96346.44;;;16.84;61.69
48390;BME280;34643;47.964;7.982;2023-02-23T19:52:52;96343.66;;;16.75;61.57
48390;BME280;34643;47.964;7.982;2023-02-23T19:57:52;96348.28;;;16.71;61.71
48390;BME280;34643;47.964;7.982;2023-02-23T20:02:52;96348.66;;;16.78;61.92
48390;BME280;34643;47.964;7.982;2023-02-23T20:08:00;96340.94;;;16.76;62.10
48390;BME280;34643;47.964;7.982;2023-02-23T20:13:00;96344.47;;;16.75;62.09
48390;BME280;34643;47.964;7.982;2023-02-23T20:18:01;96345.34;;;16.76;62.07
48390;BME280;34643;47.964;7.982;2023-02-23T20:23:01;96343.78;;;16.73;62.00
48390;BME280;34643;47.964;7.982;2023-02-23T20:28:06;96350.66;;;16.74;62.33
48390;BME280;34643;47.964;7.982;2023-02-23T20:33:07;96340.94;;;16.76;62.23
48390;BME280;34643;47.964;7.982;2023-02-23T20:38:10;96340.94;;;16.76;62.08
48390;BME280;34643;47.964;7.982;2023-02-23T20:43:13;96340.72;;;16.79;62.06
48390;BME280;34643;47.964;7.982;2023-02-23T20:48:13;96347.56;;;16.80;62.29
48390;BME280;34643;47.964;7.982;2023-02-23T20:53:14;96351.03;;;16.81;62.12
48390;BME280;34643;47.964;7.982;2023-02-23T20:58:14;96355.06;;;16.85;62.12
48390;BME280;34643;47.964;7.982;2023-02-23T21:03:16;96349.03;;;16.84;62.27
48390;BME280;34643;47.964;7.982;2023-02-23T21:08:17;96350.66;;;16.85;62.21
48390;BME280;34643;47.964;7.982;2023-02-23T21:13:17;96352.34;;;16.86;62.34
48390;BME280;34643;47.964;7.982;2023-02-23T21:18:18;96352.34;;;16.86;62.62
48390;BME280;34643;47.964;7.982;2023-02-23T21:23:18;96341.91;;;16.86;62.34
48390;BME280;34643;47.964;7.982;2023-02-23T21:28:20;96344.41;;;16.88;62.51
48390;BME280;34643;47.964;7.982;2023-02-23T21:33:20;96339.06;;;16.89;62.19
48390;BME280;34643;47.964;7.982;2023-02-23T21:38:21;96338.91;;;16.91;62.56
48390;BME280;34643;47.964;7.982;2023-02-23T21:43:22;96337.41;;;16.88;62.32
48390;BME280;34643;47.964;7.982;2023-02-23T21:48:22;96336.19;;;16.92;62.35
48390;BME280;34643;47.964;7.982;2023-02-23T21:53:24;96327.78;;;16.89;62.48
48390;BME280;34643;47.964;7.982;2023-02-23T21:58:24;96318.69;;;16.83;63.10
48390;BME280;34643;47.964;7.982;2023-02-23T22:03:26;96317.75;;;16.84;62.73
48390;BME280;34643;47.964;7.982;2023-02-23T22:08:28;96312.53;;;16.84;62.58
48390;BME280;34643;47.964;7.982;2023-02-23T22:13:28;96311.56;;;16.85;62.84
48390;BME280;34643;47.964;7.982;2023-02-23T22:18:28;96297.84;;;16.83;62.71
48390;BME280;34643;47.964;7.982;2023-02-23T22:23:29;96289.16;;;16.83;62.72
48390;BME280;34643;47.964;7.982;2023-02-23T22:28:31;96292.72;;;16.82;62.62
48390;BME280;34643;47.964;7.982;2023-02-23T22:33:32;96289.28;;;16.81;62.46
48390;BME280;34643;47.964;7.982;2023-02-23T22:38:32;96282.41;;;16.80;63.11
48390;BME280;34643;47.964;7.982;2023-02-23T22:43:33;96271.97;;;16.80;62.95
48390;BME280;34643;47.964;7.982;2023-02-23T22:48:34;96265.13;;;16.79;62.90
48390;BME280;34643;47.964;7.982;2023-02-23T22:53:34;96268.44;;;16.81;63.25
48390;BME280;34643;47.964;7.982;2023-02-23T22:58:35;96268.41;;;16.92;63.30
48390;BME280;34643;47.964;7.982;2023-02-23T23:03:36;96266.31;;;16.86;62.99
48390;BME280;34643;47.964;7.982;2023-02-23T23:08:38;96261.09;;;16.86;62.59
48390;BME280;34643;47.964;7.982;2023-02-23T23:13:40;96261.22;;;16.85;62.60
48390;BME280;34643;47.964;7.982;2023-02-23T23:18:45;96269.03;;;16.85;62.45
48390;BME280;34643;47.964;7.982;2023-02-23T23:23:46;96263.00;;;16.84;62.17
48390;BME280;34643;47.964;7.982;2023-02-23T23:28:47;96262.25;;;16.82;62.14
48390;BME280;34643;47.964;7.982;2023-02-23T23:33:49;96256.13;;;16.83;62.00
48390;BME280;34643;47.964;7.982;2023-02-23T23:38:50;96257.03;;;16.82;61.85
48390;BME280;34643;47.964;7.982;2023-02-23T23:43:57;96251.00;;;16.82;61.84
48390;BME280;34643;47.964;7.982;2023-02-23T23:48:58;96249.38;;;16.81;61.57
48390;BME280;34643;47.964;7.982;2023-02-23T23:54:00;96246.03;;;16.79;61.51
48390;BME280;34643;47.964;7.982;2023-02-23T23:59:00;96246.88;;;16.79;61.49
